Time;durP1;ratioP1;P1;durP2;ratioP2;P2;SDS_P1;SDS_P2;PMS_P1;PMS_P2;Temp;Humidity;BMP_temperature;BMP_pressure;BME280_temperature;BME280_humidity;BME280_pressure;Samples;Min_cycle;Max_cycle;Signal;HPM_P1;HPM_P2
2021/11/08 00:00:35;;;;;;;12.13;11.05;;;22.50;99.90;;;;;;5014595;28;20029;-75
2021/11/08 00:03:11;;;;;;;13.02;12.13;;;22.60;99.90;;;;;;5014714;28;20097;-75
2021/11/08 00:05:42;;;;;;;13.00;11.88;;;22.80;99.90;;;;;;5014360;28;20030;-74
2021/11/08 00:08:11;;;;;;;13.48;12.30;;;22.80;99.90;;;;;;5013415;28;20058;-75
2021/11/08 00:10:39;;;;;;;12.48;11.38;;;22.90;99.90;;;;;;5013176;28;20041;-75
2021/11/08 00:13:08;;;;;;;11.65;10.68;;;22.80;99.90;;;;;;5015966;28;20029;-75
2021/11/08 00:18:30;;;;;;;11.75;10.98;;;23.00;99.90;;;;;;5014802;28;20053;-76
2021/11/08 00:20:58;;;;;;;12.27;11.38;;;23.10;99.90;;;;;;5014701;28;20025;-75
2021/11/08 00:23:29;;;;;;;12.10;11.10;;;23.40;99.90;;;;;;5014856;28;20560;-76
2021/11/08 00:25:57;;;;;;;;;;;23.70;99.90;;;;;;5015198;28;20037;-76
2021/11/08 00:28:25;;;;;;;10.80;10.00;;;24.40;99.90;;;;;;5014585;28;19960;-76
2021/11/08 00:30:54;;;;;;;11.13;10.27;;;24.80;99.90;;;;;;5015188;28;20030;-76
2021/11/08 00:33:23;;;;;;;9.43;8.63;;;25.40;99.90;;;;;;5014913;28;20018;-77
2021/11/08 00:35:56;;;;;;;9.13;8.43;;;25.90;99.90;;;;;;5013143;28;20022;-77
2021/11/08 00:38:24;;;;;;;9.80;9.05;;;25.70;99.90;;;;;;5014417;28;20046;-76
2021/11/08 00:40:52;;;;;;;9.38;8.43;;;25.30;99.90;;;;;;5014481;28;20153;-76
2021/11/08 00:43:20;;;;;;;9.43;8.50;;;25.00;99.90;;;;;;5014750;28;20071;-77
2021/11/08 00:45:48;;;;;;;10.63;9.20;;;24.60;99.90;;;;;;5013652;28;20059;-77
2021/11/08 00:48:18;;;;;;;10.05;8.65;;;24.20;99.90;;;;;;5014891;28;20033;-77
2021/11/08 00:50:47;;;;;;;9.20;8.35;;;24.00;99.90;;;;;;5013802;28;20057;-76
2021/11/08 00:53:15;;;;;;;9.77;9.02;;;23.80;99.90;;;;;;5014716;28;20038;-77
2021/11/08 00:55:44;;;;;;;9.85;9.25;;;23.80;99.90;;;;;;5014586;28;20463;-76
2021/11/08 00:58:28;;;;;;;10.13;9.10;;;23.90;99.90;;;;;;5014557;28;20022;-76
2021/11/08 01:01:01;;;;;;;9.77;8.57;;;24.20;99.90;;;;;;5014820;28;20475;-76
2021/11/08 01:03:29;;;;;;;10.30;9.30;;;24.20;99.90;;;;;;5014151;28;20109;-75
2021/11/08 01:05:56;;;;;;;8.77;7.97;;;24.00;99.90;;;;;;5012978;28;20486;-76
2021/11/08 01:08:24;;;;;;;9.02;8.38;;;24.20;99.90;;;;;;5014112;28;20563;-76
2021/11/08 01:10:51;;;;;;;9.40;8.50;;;24.20;99.90;;;;;;5016372;28;20068;-76
2021/11/08 01:13:19;;;;;;;9.23;8.52;;;24.50;99.90;;;;;;5016913;28;20029;-76
2021/11/08 01:15:46;;;;;;;8.13;7.55;;;24.90;99.90;;;;;;5018158;28;20037;-76
2021/11/08 01:18:14;;;;;;;7.68;6.85;;;25.20;99.90;;;;;;5018083;28;20022;-76
2021/11/08 01:20:46;;;;;;;9.02;7.55;;;25.20;99.90;;;;;;5017847;28;20034;-77
2021/11/08 01:23:15;;;;;;;8.45;7.40;;;24.80;99.90;;;;;;5017852;28;20025;-76
2021/11/08 01:25:46;;;;;;;7.57;6.70;;;24.80;99.90;;;;;;5018045;28;20075;-76
2021/11/08 01:28:13;;;;;;;7.35;6.65;;;24.50;99.90;;;;;;5017068;28;20034;-76
2021/11/08 01:30:41;;;;;;;8.30;7.47;;;24.20;99.90;;;;;;5018101;28;20488;-76
2021/11/08 01:33:14;;;;;;;8.20;7.40;;;24.20;99.90;;;;;;5018047;28;20479;-76
2021/11/08 01:35:42;;;;;;;7.85;6.90;;;24.00;99.90;;;;;;5016183;28;20400;-76
2021/11/08 01:40:44;;;;;;;7.93;6.78;;;24.70;99.90;;;;;;5017759;28;20028;-76
2021/11/08 01:43:13;;;;;;;8.13;7.32;;;25.00;99.90;;;;;;5016359;28;20022;-75
2021/11/08 01:45:42;;;;;;;7.47;6.32;;;25.80;99.90;;;;;;5016892;28;20391;-77
2021/11/08 01:48:12;;;;;;;7.18;6.40;;;25.60;99.90;;;;;;5017685;28;20053;-77
2021/11/08 01:50:41;;;;;;;6.17;5.67;;;25.40;99.90;;;;;;5017209;28;20093;-76
2021/11/08 01:53:08;;;;;;;8.68;5.90;;;25.30;99.90;;;;;;5000725;28;20046;-77
2021/11/08 01:55:36;;;;;;;9.95;6.40;;;25.50;99.90;;;;;;5021032;28;20104;-78
2021/11/08 01:58:04;;;;;;;7.20;6.45;;;25.70;99.90;;;;;;5000763;28;20084;-79
2021/11/08 02:00:32;;;;;;;7.32;5.55;;;25.80;99.90;;;;;;5016920;28;20022;-81
2021/11/08 02:03:00;;;;;;;8.00;5.50;;;25.90;99.90;;;;;;5018308;28;20025;-79
2021/11/08 02:05:27;;;;;;;6.40;5.15;;;25.80;99.90;;;;;;5016895;28;20093;-82
2021/11/08 02:07:55;;;;;;;7.85;5.63;;;26.20;99.90;;;;;;5018210;28;20026;-79
2021/11/08 02:10:23;;;;;;;6.03;5.47;;;26.60;99.90;;;;;;5017683;28;20026;-81
2021/11/08 02:12:50;;;;;;;6.95;5.50;;;26.90;99.90;;;;;;5016672;28;20037;-79
2021/11/08 02:15:20;;;;;;;5.75;4.78;;;26.80;99.90;;;;;;5016327;28;20030;-80
2021/11/08 02:17:49;;;;;;;7.22;4.57;;;27.00;99.90;;;;;;5017567;28;20049;-80
2021/11/08 02:20:25;;;;;;;8.15;5.00;;;27.20;99.90;;;;;;5015640;28;20026;-80
2021/11/08 02:22:59;;;;;;;5.20;4.75;;;27.20;99.90;;;;;;5017191;28;20017;-80
2021/11/08 02:25:29;;;;;;;7.07;4.82;;;27.10;99.90;;;;;;5016165;28;20486;-81
2021/11/08 02:27:57;;;;;;;8.93;5.25;;;26.60;99.90;;;;;;5015889;28;20501;-79
2021/11/08 02:30:28;;;;;;;8.70;4.40;;;26.80;99.90;;;;;;5016681;28;20026;-80
2021/11/08 02:32:58;;;;;;;5.63;4.32;;;26.80;99.90;;;;;;5017140;28;20541;-82
2021/11/08 02:35:26;;;;;;;5.07;4.50;;;26.90;99.90;;;;;;5016552;28;20036;-81
2021/11/08 02:37:54;;;;;;;5.65;3.92;;;26.90;99.90;;;;;;5017807;28;20026;-82
2021/11/08 02:40:25;;;;;;;7.68;4.22;;;26.50;99.90;;;;;;5017707;28;20022;-81
2021/11/08 02:42:58;;;;;;;6.10;4.50;;;26.60;99.90;;;;;;5017147;28;20022;-80
2021/11/08 02:45:28;;;;;;;8.43;4.20;;;26.70;99.90;;;;;;5015966;28;20096;-80
2021/11/08 02:47:56;;;;;;;6.27;4.33;;;26.90;99.90;;;;;;5017396;28;20026;-80
2021/11/08 02:50:29;;;;;;;5.32;4.07;;;26.40;99.90;;;;;;5016992;28;20037;-82
2021/11/08 02:52:56;;;;;;;6.03;4.13;;;26.70;99.90;;;;;;5017220;28;20018;-80
2021/11/08 02:55:26;;;;;;;7.13;4.32;;;26.50;99.90;;;;;;5017131;28;20033;-77
2021/11/08 02:57:56;;;;;;;5.28;3.95;;;26.40;99.90;;;;;;5016121;28;20120;-77
2021/11/08 03:00:25;;;;;;;4.93;3.97;;;26.60;99.90;;;;;;5016677;28;20022;-77
2021/11/08 03:02:53;;;;;;;4.87;4.20;;;26.60;99.90;;;;;;5016947;28;20029;-77
2021/11/08 03:05:31;;;;;;;6.00;4.05;;;26.60;99.90;;;;;;5016537;28;20255;-76
2021/11/08 03:07:59;;;;;;;6.95;4.90;;;26.20;99.90;;;;;;5016736;28;20026;-77
2021/11/08 03:10:29;;;;;;;5.82;5.20;;;25.50;99.90;;;;;;5015331;28;20547;-75
2021/11/08 03:12:58;;;;;;;6.95;5.13;;;25.80;99.90;;;;;;5016457;28;20022;-76
2021/11/08 03:18:17;;;;;;;5.72;4.50;;;25.50;99.90;;;;;;5016418;28;20025;-77
2021/11/08 03:20:45;;;;;;;4.90;4.47;;;25.90;99.90;;;;;;5014816;28;20387;-76
2021/11/08 03:23:13;;;;;;;6.38;4.50;;;26.10;99.90;;;;;;5014513;28;20483;-77
2021/11/08 03:25:50;;;;;;;5.85;3.80;;;26.20;99.90;;;;;;5015744;28;20106;-77
2021/11/08 03:28:19;;;;;;;5.43;3.88;;;26.40;99.90;;;;;;5015969;28;20100;-77
2021/11/08 03:30:49;;;;;;;5.57;3.85;;;26.50;99.90;;;;;;4998984;28;20029;-76
2021/11/08 03:33:18;;;;;;;5.05;4.30;;;26.10;99.90;;;;;;5014673;28;20483;-78
2021/11/08 03:35:46;;;;;;;4.18;3.78;;;25.80;99.90;;;;;;5016365;28;20048;-77
2021/11/08 03:38:14;;;;;;;5.68;4.00;;;25.20;99.90;;;;;;5014542;28;20044;-77
2021/11/08 03:40:46;;;;;;;5.22;4.10;;;25.00;99.90;;;;;;5014415;28;20113;-78
2021/11/08 03:43:18;;;;;;;5.80;4.50;;;25.50;99.90;;;;;;5015280;28;20104;-78
2021/11/08 03:45:47;;;;;;;6.18;4.15;;;25.90;99.90;;;;;;5014064;28;20022;-78
2021/11/08 03:48:16;;;;;;;6.13;4.22;;;26.00;99.90;;;;;;5013967;28;20022;-78
2021/11/08 03:50:44;;;;;;;5.88;4.20;;;26.10;99.90;;;;;;5013812;28;20094;-78
2021/11/08 03:53:12;;;;;;;6.53;4.10;;;25.60;99.90;;;;;;5013753;28;20141;-78
2021/11/08 03:55:40;;;;;;;5.28;4.38;;;25.10;99.90;;;;;;5013375;28;20057;-78
2021/11/08 03:58:08;;;;;;;6.43;4.40;;;25.10;99.90;;;;;;5013805;28;20514;-77
2021/11/08 04:00:37;;;;;;;5.13;3.70;;;24.90;99.90;;;;;;5013673;28;20022;-77
2021/11/08 04:03:05;;;;;;;5.13;4.35;;;25.00;99.90;;;;;;5015047;28;20097;-77
2021/11/08 04:05:35;;;;;;;5.50;3.90;;;24.80;99.90;;;;;;5013506;28;20434;-78
2021/11/08 04:08:07;;;;;;;5.55;3.58;;;25.50;99.90;;;;;;5013730;28;20057;-78
2021/11/08 04:10:36;;;;;;;4.43;4.00;;;25.50;99.90;;;;;;5013420;28;20058;-78
2021/11/08 04:13:04;;;;;;;5.35;3.83;;;24.90;99.90;;;;;;5014794;28;20454;-78
2021/11/08 04:15:37;;;;;;;4.50;3.70;;;24.30;99.90;;;;;;5013449;28;20121;-77
2021/11/08 04:18:11;;;;;;;4.47;3.53;;;24.60;99.90;;;;;;5014700;28;20018;-77
2021/11/08 04:20:42;;;;;;;5.32;3.40;;;25.40;99.90;;;;;;5013580;28;20030;-77
2021/11/08 04:23:11;;;;;;;4.88;3.60;;;25.80;99.90;;;;;;5014641;28;20022;-77
2021/11/08 04:25:39;;;;;;;4.78;3.40;;;25.70;99.90;;;;;;5013214;28;20040;-77
2021/11/08 04:28:07;;;;;;;3.88;3.50;;;25.80;99.90;;;;;;5014624;28;20022;-77
2021/11/08 04:30:38;;;;;;;5.15;3.42;;;25.50;99.90;;;;;;5014619;28;20022;-78
2021/11/08 04:33:19;;;;;;;5.72;3.50;;;25.00;99.90;;;;;;5014891;28;20447;-77
2021/11/08 04:36:07;;;;;;;4.45;3.83;;;24.60;99.90;;;;;;5014511;28;20046;-77
2021/11/08 04:41:39;;;;;;;7.50;4.30;;;23.70;99.90;;;;;;5014216;28;20018;-77
2021/11/08 04:49:42;;;;;;;6.32;3.85;;;23.20;99.90;;;;;;5013963;28;20037;-77
2021/11/08 04:55:10;;;;;;;5.60;4.30;;;22.80;99.90;;;;;;5014258;28;20076;-77
2021/11/08 05:32:33;;;;;;;6.80;3.72;;;24.00;99.90;;;;;;5014017;28;20105;-77
2021/11/08 05:35:00;;;;;;;6.13;4.10;;;24.40;99.90;;;;;;5012932;28;20030;-76
2021/11/08 05:37:29;;;;;;;5.50;3.88;;;24.50;99.90;;;;;;5014211;28;20547;-77
2021/11/08 05:40:04;;;;;;;3.80;3.20;;;25.10;99.90;;;;;;5014359;28;20018;-77
2021/11/08 05:42:32;;;;;;;4.72;3.45;;;24.80;99.90;;;;;;5014452;28;20057;-77
2021/11/08 05:44:59;;;;;;;7.00;4.00;;;24.50;99.90;;;;;;5012052;28;20529;-77
2021/11/08 05:47:28;;;;;;;3.90;3.45;;;24.30;99.90;;;;;;5013453;28;20037;-76
2021/11/08 05:49:56;;;;;;;4.80;3.13;;;24.20;99.90;;;;;;5012002;28;20029;-76
2021/11/08 05:52:24;;;;;;;4.32;3.35;;;24.10;99.90;;;;;;5012440;28;20073;-76
2021/11/08 05:54:51;;;;;;;4.25;3.40;;;24.00;99.90;;;;;;5012423;28;20037;-77
2021/11/08 06:51:51;;;;;;;6.35;3.95;;;26.90;99.90;;;;;;5016673;28;20051;-75
2021/11/08 06:54:24;;;;;;;5.35;3.50;;;27.20;99.90;;;;;;5017572;28;20029;-75
2021/11/08 06:56:55;;;;;;;4.68;3.25;;;27.10;99.90;;;;;;5014979;28;20042;-75
2021/11/08 06:59:27;;;;;;;5.68;3.42;;;26.90;99.90;;;;;;5016025;28;20076;-75
2021/11/08 07:01:55;;;;;;;8.00;3.60;;;26.80;99.90;;;;;;5016307;28;20018;-75
2021/11/08 07:04:24;;;;;;;6.63;4.25;;;26.50;99.90;;;;;;5015740;28;20026;-75
2021/11/08 07:06:52;;;;;;;3.75;3.25;;;25.90;99.90;;;;;;5015780;28;20438;-74
2021/11/08 07:09:20;;;;;;;5.13;3.58;;;25.50;99.90;;;;;;5014131;28;20067;-74
2021/11/08 07:11:48;;;;;;;5.15;3.38;;;24.80;99.90;;;;;;5015948;28;20017;-75
2021/11/08 07:14:16;;;;;;;6.25;4.28;;;24.30;99.90;;;;;;5014474;28;20025;-75
2021/11/08 07:16:47;;;;;;;6.05;3.83;;;23.70;99.90;;;;;;5014726;28;20499;-75
2021/11/08 07:19:16;;;;;;;5.22;3.88;;;23.40;99.90;;;;;;5015809;28;20379;-75
2021/11/08 07:21:44;;;;;;;4.13;3.72;;;23.40;99.90;;;;;;5014566;28;20026;-75
2021/11/08 07:24:12;;;;;;;5.53;4.45;;;22.90;99.90;;;;;;5014331;28;20021;-75
2021/11/08 07:26:40;;;;;;;7.25;4.70;;;22.80;99.90;;;;;;5015850;28;20026;-75
2021/11/08 07:29:08;;;;;;;4.95;4.47;;;22.50;99.90;;;;;;5015776;28;20021;-75
2021/11/08 07:31:35;;;;;;;5.85;4.18;;;22.50;99.90;;;;;;5014213;28;20026;-75
2021/11/08 07:34:03;;;;;;;4.63;4.22;;;22.10;99.90;;;;;;5015295;28;20026;-75
2021/11/08 07:36:30;;;;;;;6.80;4.45;;;22.00;99.90;;;;;;5015430;28;20058;-76
2021/11/08 07:38:58;;;;;;;5.80;4.78;;;21.80;99.90;;;;;;5015929;28;20032;-76
2021/11/08 07:41:25;;;;;;;7.35;4.60;;;21.80;99.90;;;;;;5015007;28;20018;-76
2021/11/08 07:43:53;;;;;;;5.85;5.18;;;21.70;99.90;;;;;;5015331;28;20486;-75
2021/11/08 07:46:20;;;;;;;6.07;4.63;;;21.50;99.90;;;;;;5014229;28;20148;-76
2021/11/08 07:48:51;;;;;;;6.72;6.05;;;21.30;99.90;;;;;;5015517;28;20045;-75
2021/11/08 07:51:20;;;;;;;7.50;5.75;;;21.40;99.90;;;;;;5015351;28;20418;-76
2021/11/08 07:53:48;;;;;;;7.38;5.72;;;21.30;99.90;;;;;;5015122;28;20037;-74
2021/11/08 07:56:16;;;;;;;6.88;6.03;;;21.20;99.90;;;;;;5014042;28;20042;-76
2021/11/08 07:58:44;;;;;;;6.20;5.70;;;21.10;99.90;;;;;;5015812;28;20034;-75
2021/11/08 08:01:12;;;;;;;7.60;6.10;;;20.90;99.90;;;;;;5013583;28;20025;-74
2021/11/08 08:03:40;;;;;;;6.47;5.90;;;20.70;99.90;;;;;;5015221;28;20029;-77
2021/11/08 08:06:08;;;;;;;8.23;6.90;;;20.60;99.90;;;;;;5013906;28;20057;-76
2021/11/08 08:08:36;;;;;;;7.30;6.65;;;20.50;99.90;;;;;;5015995;28;20042;-75
2021/11/08 08:11:06;;;;;;;7.38;6.72;;;20.50;99.90;;;;;;5013353;28;20438;-79
2021/11/08 08:13:36;;;;;;;10.68;6.90;;;20.40;99.90;;;;;;5014450;28;20471;-77
2021/11/08 08:16:06;;;;;;;7.90;7.17;;;20.60;99.90;;;;;;5015471;28;20038;-77
2021/11/08 08:18:34;;;;;;;;;;;20.50;99.90;;;;;;5015845;28;20387;-78
2021/11/08 08:21:02;;;;;;;8.32;7.57;;;20.60;99.90;;;;;;5015641;28;20402;-78
2021/11/08 08:23:29;;;;;;;7.70;6.90;;;20.60;99.90;;;;;;5015891;28;20022;-78
2021/11/08 08:25:57;;;;;;;8.00;7.30;;;20.50;99.90;;;;;;5015630;28;20483;-78
2021/11/08 08:28:24;;;;;;;8.73;8.00;;;20.50;99.90;;;;;;5013073;28;20033;-76
2021/11/08 08:30:52;;;;;;;9.25;8.45;;;20.40;99.90;;;;;;5013107;28;20029;-78
2021/11/08 08:33:20;;;;;;;9.75;8.77;;;20.40;99.90;;;;;;5013652;28;20022;-76
2021/11/08 08:35:47;;;;;;;10.38;9.52;;;20.40;99.90;;;;;;5014640;28;20017;-77
2021/11/08 08:38:20;;;;;;;11.40;9.45;;;20.40;99.90;;;;;;5014553;28;20049;-78
2021/11/08 08:40:49;;;;;;;9.80;8.80;;;20.30;99.90;;;;;;5013314;28;20558;-78
2021/11/08 08:43:19;;;;;;;9.38;8.50;;;20.20;99.90;;;;;;5014765;28;20395;-79
2021/11/08 08:45:48;;;;;;;9.93;8.95;;;20.20;99.90;;;;;;5013238;28;20080;-78
2021/11/08 08:48:15;;;;;;;9.18;8.40;;;20.10;99.90;;;;;;5015573;28;20030;-77
2021/11/08 08:50:44;;;;;;;8.32;7.70;;;20.00;99.90;;;;;;5014116;28;20483;-78
2021/11/08 08:53:12;;;;;;;8.15;7.55;;;20.00;99.90;;;;;;5018369;28;20064;-81
2021/11/08 08:55:41;;;;;;;8.68;7.97;;;20.00;99.90;;;;;;5013917;28;20487;-80
2021/11/08 08:58:08;;;;;;;8.50;7.80;;;20.10;99.90;;;;;;5013499;28;20121;-79
2021/11/08 09:00:38;;;;;;;8.32;7.60;;;20.10;99.90;;;;;;5014618;28;20049;-78
2021/11/08 09:03:08;;;;;;;9.07;8.10;;;20.00;99.90;;;;;;5014661;28;20025;-77
2021/11/08 09:05:36;;;;;;;9.30;8.70;;;20.00;99.90;;;;;;5013711;28;20400;-77
2021/11/08 09:08:04;;;;;;;9.38;8.68;;;19.90;99.90;;;;;;5013102;28;20038;-78
2021/11/08 09:10:34;;;;;;;9.98;9.18;;;19.80;99.90;;;;;;5013261;28;20092;-78
2021/11/08 09:13:02;;;;;;;10.13;9.52;;;19.80;99.90;;;;;;5013986;28;20037;-77
2021/11/08 09:15:30;;;;;;;10.45;9.60;;;19.70;99.90;;;;;;5018898;28;20108;-79
2021/11/08 09:17:59;;;;;;;10.00;9.30;;;19.60;99.90;;;;;;5014823;28;20022;-75
2021/11/08 09:20:28;;;;;;;10.90;9.90;;;19.60;99.90;;;;;;5015241;28;20025;-78
2021/11/08 09:22:57;;;;;;;10.20;9.50;;;19.60;99.90;;;;;;5015227;28;20097;-78
2021/11/08 09:25:26;;;;;;;10.00;9.50;;;19.50;99.90;;;;;;5014400;28;20022;-77
2021/11/08 09:27:58;;;;;;;10.00;9.23;;;19.50;99.90;;;;;;5013810;28;20018;-76
2021/11/08 09:30:30;;;;;;;9.98;9.38;;;19.50;99.90;;;;;;5013898;28;20022;-78
2021/11/08 09:32:58;;;;;;;10.57;9.68;;;19.50;99.90;;;;;;5018301;28;20033;-76
2021/11/08 09:35:31;;;;;;;9.90;9.10;;;19.50;99.90;;;;;;5017781;28;20029;-76
2021/11/08 09:38:02;;;;;;;10.20;9.40;;;19.40;99.90;;;;;;5018608;28;20049;-75
2021/11/08 09:40:30;;;;;;;10.82;10.00;;;19.40;99.90;;;;;;5017517;28;20431;-75
2021/11/08 09:42:58;;;;;;;10.80;9.80;;;19.50;99.90;;;;;;5018605;28;20061;-74
2021/11/08 09:45:26;;;;;;;11.00;10.20;;;19.50;99.90;;;;;;5018590;28;20053;-74
2021/11/08 09:47:54;;;;;;;10.45;9.65;;;19.50;99.90;;;;;;5017267;28;20049;-74
2021/11/08 09:50:26;;;;;;;11.63;10.77;;;19.50;99.90;;;;;;5017305;28;20101;-74
2021/11/08 09:52:53;;;;;;;11.02;10.02;;;19.50;99.90;;;;;;5017310;28;20479;-75
2021/11/08 09:55:23;;;;;;;10.90;10.13;;;19.40;99.90;;;;;;5017554;28;20029;-74
2021/11/08 09:57:55;;;;;;;10.70;10.10;;;19.40;99.90;;;;;;5017176;28;20018;-73
2021/11/08 10:00:26;;;;;;;10.75;9.80;;;19.50;99.90;;;;;;5017209;28;20026;-74
2021/11/08 10:02:57;;;;;;;10.93;10.02;;;19.50;99.90;;;;;;5016161;28;20022;-74
2021/11/08 10:05:28;;;;;;;11.00;10.10;;;19.50;99.90;;;;;;5018019;28;20099;-75
2021/11/08 10:07:57;;;;;;;11.93;10.85;;;19.50;99.90;;;;;;5017949;28;20026;-75
2021/11/08 10:10:29;;;;;;;11.02;10.23;;;19.60;99.90;;;;;;5017314;28;20026;-75
2021/11/08 10:13:06;;;;;;;11.20;10.48;;;19.50;99.90;;;;;;5016633;28;20026;-75
2021/11/08 10:15:34;;;;;;;10.85;10.07;;;19.50;99.90;;;;;;5017753;28;20107;-74
2021/11/08 10:18:05;;;;;;;11.90;11.10;;;19.40;99.90;;;;;;5016221;28;20040;-75
2021/11/08 10:20:37;;;;;;;13.10;12.00;;;19.50;99.90;;;;;;5017920;28;20049;-75
2021/11/08 10:23:06;;;;;;;12.75;11.77;;;19.50;99.90;;;;;;5017788;28;20022;-75
2021/11/08 10:25:37;;;;;;;12.52;11.60;;;19.60;99.90;;;;;;5017909;28;20052;-78
2021/11/08 10:28:15;;;;;;;12.40;11.40;;;19.50;99.90;;;;;;5017865;28;20018;-76
2021/11/08 10:30:45;;;;;;;11.70;10.90;;;19.50;99.90;;;;;;5017332;28;20049;-76
2021/11/08 10:33:20;;;;;;;12.02;11.25;;;19.50;99.90;;;;;;5016377;28;20034;-76
2021/11/08 10:35:50;;;;;;;11.75;10.95;;;19.50;99.90;;;;;;5016955;28;20033;-77
2021/11/08 10:38:24;;;;;;;;;;;19.40;99.90;;;;;;5016877;28;20093;-77
2021/11/08 10:40:54;;;;;;;12.10;11.30;;;19.30;99.90;;;;;;5017234;28;19906;-76
2021/11/08 10:43:34;;;;;;;11.73;10.80;;;19.30;99.90;;;;;;5016905;28;20026;-76
2021/11/08 10:46:06;;;;;;;11.57;10.88;;;19.20;99.90;;;;;;5015635;28;20068;-76
2021/11/08 10:48:38;;;;;;;11.32;10.45;;;19.20;99.90;;;;;;5015731;28;20399;-76
2021/11/08 10:51:07;;;;;;;11.20;10.48;;;19.10;99.90;;;;;;5016943;28;20361;-75
2021/11/08 10:53:53;;;;;;;11.45;10.65;;;19.10;99.90;;;;;;5016711;28;20034;-75
2021/11/08 10:56:25;;;;;;;10.93;10.15;;;19.00;99.90;;;;;;5015099;28;20038;-75
2021/11/08 10:58:54;;;;;;;10.93;10.02;;;19.00;99.90;;;;;;5016765;28;20026;-75
2021/11/08 11:01:25;;;;;;;11.80;10.80;;;18.90;99.90;;;;;;5015395;28;20022;-75
2021/11/08 11:03:54;;;;;;;11.18;10.48;;;18.90;99.90;;;;;;5016858;28;20446;-75
2021/11/08 11:06:33;;;;;;;12.10;11.27;;;18.90;99.90;;;;;;5016621;28;20072;-75
2021/11/08 11:09:02;;;;;;;11.70;10.75;;;18.90;99.90;;;;;;5016429;28;20068;-75
2021/11/08 11:11:29;;;;;;;11.90;11.20;;;18.90;99.90;;;;;;5016351;28;20018;-75
2021/11/08 11:13:57;;;;;;;11.75;11.05;;;18.90;99.90;;;;;;5016429;28;20021;-76
2021/11/08 11:16:51;;;;;;;11.98;11.18;;;19.00;99.90;;;;;;5016215;28;20022;-76
2021/11/08 11:19:19;;;;;;;13.15;12.27;;;19.00;99.90;;;;;;5013952;28;20030;-75
2021/11/08 11:22:02;;;;;;;12.30;11.50;;;19.00;99.90;;;;;;5016071;28;20081;-76
2021/11/08 11:24:41;;;;;;;12.63;11.77;;;19.10;99.90;;;;;;4998548;28;20117;-74
2021/11/08 11:27:12;;;;;;;12.70;11.80;;;19.20;99.90;;;;;;5014921;28;20105;-76
2021/11/08 11:29:40;;;;;;;13.02;12.00;;;19.20;99.90;;;;;;5016144;28;20026;-76
2021/11/08 11:32:25;;;;;;;12.18;11.45;;;19.30;99.90;;;;;;5014743;28;20030;-76
2021/11/08 11:34:57;;;;;;;12.65;11.95;;;19.30;99.90;;;;;;5014716;28;20026;-76
2021/11/08 11:37:29;;;;;;;12.32;11.35;;;19.30;99.90;;;;;;5014172;28;20101;-75
2021/11/08 11:40:23;;;;;;;12.40;11.60;;;19.30;99.90;;;;;;5015892;28;20037;-75
2021/11/08 11:43:00;;;;;;;12.80;11.70;;;19.40;99.90;;;;;;5011978;28;20026;-76
2021/11/08 11:45:29;;;;;;;12.13;11.32;;;19.30;99.90;;;;;;5015943;28;20022;-76
2021/11/08 11:47:59;;;;;;;12.30;11.40;;;19.30;99.90;;;;;;5014458;28;20044;-76
2021/11/08 11:50:27;;;;;;;12.18;11.35;;;19.30;99.90;;;;;;5014542;28;20028;-76
2021/11/08 11:52:57;;;;;;;12.27;11.35;;;19.20;99.90;;;;;;5014107;28;20034;-76
2021/11/08 11:55:24;;;;;;;12.45;11.60;;;19.30;99.90;;;;;;5014774;28;20383;-76
2021/11/08 11:57:56;;;;;;;11.85;11.05;;;19.30;99.90;;;;;;5014582;28;20053;-76
2021/11/08 12:00:25;;;;;;;13.05;11.95;;;19.30;99.90;;;;;;5013132;28;20049;-75
2021/11/08 12:02:54;;;;;;;12.25;11.45;;;19.30;99.90;;;;;;5014458;28;20061;-75
2021/11/08 12:05:22;;;;;;;12.20;11.35;;;19.30;99.90;;;;;;5014410;28;20026;-75
2021/11/08 12:08:02;;;;;;;12.88;11.82;;;19.30;99.90;;;;;;5014714;28;20014;-75
2021/11/08 12:10:30;;;;;;;13.57;12.37;;;19.30;99.90;;;;;;5013669;28;20026;-76
2021/11/08 12:12:57;;;;;;;12.70;11.77;;;19.20;99.90;;;;;;5014955;28;20356;-76
2021/11/08 12:15:30;;;;;;;13.25;12.20;;;19.30;99.90;;;;;;5014248;28;20060;-76
2021/11/08 12:18:08;;;;;;;12.55;11.68;;;19.20;99.90;;;;;;5013520;28;20022;-77
2021/11/08 12:20:48;;;;;;;12.75;11.80;;;19.20;99.90;;;;;;5014477;28;20014;-76
2021/11/08 12:23:24;;;;;;;13.20;12.18;;;19.20;99.90;;;;;;5013031;28;20029;-76
2021/11/08 12:25:53;;;;;;;13.70;12.60;;;19.20;99.90;;;;;;5014540;28;20135;-75
2021/11/08 12:28:26;;;;;;;13.48;12.48;;;19.20;99.90;;;;;;5013153;28;20391;-75
2021/11/08 12:31:01;;;;;;;13.60;12.60;;;19.20;99.90;;;;;;5014670;28;20025;-75
2021/11/08 12:33:35;;;;;;;13.80;12.90;;;19.20;99.90;;;;;;5014552;28;20026;-75
2021/11/08 12:36:11;;;;;;;13.75;12.75;;;19.10;99.90;;;;;;5015035;28;20022;-76
2021/11/08 12:38:58;;;;;;;13.90;12.75;;;19.20;99.90;;;;;;5014660;28;20052;-77
2021/11/08 12:41:48;;;;;;;13.50;12.60;;;19.20;99.90;;;;;;5015264;28;20037;-77
2021/11/08 12:44:21;;;;;;;13.23;12.40;;;19.20;99.90;;;;;;5012918;28;20018;-77
2021/11/08 12:46:58;;;;;;;12.93;12.20;;;19.10;99.90;;;;;;5014233;28;20101;-76
2021/11/08 12:49:38;;;;;;;13.05;12.15;;;19.10;99.90;;;;;;5013028;28;20034;-76
2021/11/08 12:52:18;;;;;;;13.35;12.25;;;19.10;99.90;;;;;;5012681;28;20037;-76
2021/11/08 12:54:45;;;;;;;;;;;19.20;99.90;;;;;;5013324;28;20083;-76
2021/11/08 12:57:15;;;;;;;12.95;12.15;;;19.10;99.90;;;;;;4919717;28;2737544;-77
2021/11/08 12:59:53;;;;;;;14.30;13.25;;;19.10;99.90;;;;;;5014845;28;20048;-77
2021/11/08 13:02:41;;;;;;;14.68;13.52;;;19.10;99.90;;;;;;5013506;28;20132;-76
2021/11/08 13:05:12;;;;;;;14.48;13.27;;;19.10;99.90;;;;;;5013170;28;20036;-76
2021/11/08 13:07:43;;;;;;;14.80;13.57;;;19.10;99.90;;;;;;5012336;28;20026;-76
2021/11/08 13:10:26;;;;;;;14.18;13.20;;;19.10;99.90;;;;;;5013994;28;20105;-77
2021/11/08 13:12:55;;;;;;;14.95;13.82;;;19.00;99.90;;;;;;5014445;28;20502;-77
2021/11/08 13:15:29;;;;;;;14.23;13.05;;;18.90;99.90;;;;;;5012608;28;20065;-76
2021/11/08 13:18:03;;;;;;;15.40;14.15;;;18.90;99.90;;;;;;5014424;28;20018;-76
2021/11/08 13:20:34;;;;;;;15.35;14.38;;;18.90;99.90;;;;;;5013100;28;20026;-76
2021/11/08 13:23:08;;;;;;;15.32;14.27;;;18.90;99.90;;;;;;5012849;28;20030;-76
2021/11/08 13:25:44;;;;;;;14.80;13.90;;;18.90;99.90;;;;;;5014447;28;20025;-75
2021/11/08 13:28:18;;;;;;;15.75;14.43;;;18.90;99.90;;;;;;5014212;28;20037;-76
2021/11/08 13:30:51;;;;;;;14.80;13.73;;;18.90;99.90;;;;;;5012971;28;20031;-77
2021/11/08 13:33:22;;;;;;;14.70;13.73;;;18.90;99.90;;;;;;5014401;28;20144;-76
2021/11/08 13:35:51;;;;;;;14.30;13.50;;;18.90;99.90;;;;;;5013962;28;20029;-76
2021/11/08 13:38:24;;;;;;;14.15;13.38;;;18.90;99.90;;;;;;5012415;28;20120;-77
2021/11/08 13:40:58;;;;;;;13.88;12.98;;;18.90;99.90;;;;;;5012530;28;20018;-76
2021/11/08 13:43:47;;;;;;;13.18;12.48;;;18.90;99.90;;;;;;5013880;28;20030;-76
2021/11/08 13:46:24;;;;;;;14.20;12.93;;;18.90;99.90;;;;;;5014040;28;20408;-76
2021/11/08 13:49:01;;;;;;;13.30;12.38;;;18.90;99.90;;;;;;5012999;28;20077;-76
2021/11/08 13:51:31;;;;;;;13.73;12.73;;;18.90;99.90;;;;;;5013025;28;20026;-76
2021/11/08 13:53:58;;;;;;;13.25;12.40;;;18.80;99.90;;;;;;5012898;28;20010;-76
2021/11/08 13:56:34;;;;;;;13.48;12.60;;;18.90;99.90;;;;;;5013896;28;20046;-76
2021/11/08 13:59:10;;;;;;;13.23;12.30;;;18.90;99.90;;;;;;5014113;28;20028;-76
2021/11/08 14:01:40;;;;;;;12.80;12.00;;;18.90;99.90;;;;;;5013932;28;20018;-76
2021/11/08 14:04:08;;;;;;;13.73;12.48;;;19.00;99.90;;;;;;5013960;28;20022;-76
2021/11/08 14:06:41;;;;;;;12.70;11.98;;;19.00;99.90;;;;;;5012819;28;20030;-76
2021/11/08 14:09:19;;;;;;;12.85;11.98;;;19.10;99.90;;;;;;5012747;28;20117;-76
2021/11/08 14:11:47;;;;;;;13.80;12.82;;;19.10;99.90;;;;;;5014011;28;20032;-76
2021/11/08 14:14:17;;;;;;;13.20;12.20;;;19.00;99.90;;;;;;5013989;28;20026;-76
2021/11/08 14:16:47;;;;;;;12.95;11.93;;;19.10;99.90;;;;;;5013258;28;20029;-76
2021/11/08 14:19:16;;;;;;;12.73;11.73;;;19.10;99.90;;;;;;5016368;28;20032;-77
2021/11/08 14:21:46;;;;;;;13.38;12.48;;;19.00;99.90;;;;;;5017520;28;20113;-77
2021/11/08 14:24:17;;;;;;;13.50;12.35;;;18.90;99.90;;;;;;5017155;28;20018;-77
2021/11/08 14:26:48;;;;;;;14.30;13.30;;;18.90;99.90;;;;;;5016838;28;20381;-76
2021/11/08 14:29:35;;;;;;;14.60;13.60;;;18.80;99.90;;;;;;5017144;28;20022;-77
2021/11/08 14:32:09;;;;;;;14.60;13.50;;;18.80;99.90;;;;;;5016755;28;20034;-76
2021/11/08 14:34:43;;;;;;;15.18;13.88;;;18.70;99.90;;;;;;5017441;28;20060;-76
2021/11/08 14:37:13;;;;;;;16.38;15.25;;;18.70;99.90;;;;;;5017495;28;20060;-76
2021/11/08 14:39:45;;;;;;;15.88;14.70;;;18.60;99.90;;;;;;5017547;28;20391;-76
2021/11/08 14:48:41;;;;;;;15.82;14.65;;;18.60;99.90;;;;;;4956941;28;20038;-76
2021/11/08 14:51:16;;;;;;;16.73;15.45;;;18.60;99.90;;;;;;5015681;28;20542;-77